Time;durP1;ratioP1;P1;durP2;ratioP2;P2;SDS_P1;SDS_P2;PMS_P1;PMS_P2;Temp;Humidity;BMP_temperature;BMP_pressure;BME280_temperature;BME280_humidity;BME280_pressure;Samples;Min_cycle;Max_cycle;Signal;HPM_P1;HPM_P2
2022/10/10 00:02:14;;;;;;;14.70;4.40;;;;;;;4.49;81.71;101203.84;103630;1298;23777;-76
2022/10/10 00:04:45;;;;;;;14.40;4.50;;;;;;;4.47;81.95;101204.34;103618;1306;22587;-76
2022/10/10 00:07:17;;;;;;;14.10;3.30;;;;;;;4.50;82.03;101201.55;103648;1295;22561;-76
2022/10/10 00:09:48;;;;;;;15.70;3.60;;;;;;;4.52;82.18;101199.55;103611;1308;22487;-76
2022/10/10 00:12:20;;;;;;;21.10;5.50;;;;;;;4.54;82.62;101196.44;103561;1295;22460;-76
2022/10/10 00:14:52;;;;;;;15.30;3.50;;;;;;;4.56;82.76;101194.03;103632;1294;22474;-76
2022/10/10 00:17:23;;;;;;;13.80;3.50;;;;;;;4.57;82.90;101191.17;103609;1298;22523;-76
2022/10/10 00:19:53;;;;;;;23.10;4.10;;;;;;;4.58;82.85;101182.09;103616;1295;22517;-76
2022/10/10 00:22:26;;;;;;;20.80;4.40;;;;;;;4.60;82.97;101176.60;103647;1288;22493;-76
2022/10/10 00:24:58;;;;;;;13.30;3.10;;;;;;;4.61;83.08;101180.48;103700;1298;22505;-76
2022/10/10 00:27:31;;;;;;;13.20;3.40;;;;;;;4.61;83.22;101178.17;103663;1282;22483;-75
2022/10/10 00:30:03;;;;;;;12.80;3.50;;;;;;;4.62;83.21;101175.00;103678;1307;25033;-75
2022/10/10 00:32:34;;;;;;;14.10;2.90;;;;;;;4.61;83.25;101174.16;103633;1285;22484;-75
2022/10/10 00:35:06;;;;;;;14.70;4.30;;;;;;;4.59;83.36;101174.31;103604;1304;23179;-75
2022/10/10 00:37:37;;;;;;;13.80;3.10;;;;;;;4.58;83.36;101168.97;103765;1301;22485;-76
2022/10/10 00:40:11;;;;;;;15.30;3.40;;;;;;;4.58;83.26;101168.41;103582;1297;22472;-76
2022/10/10 00:42:43;;;;;;;14.60;3.40;;;;;;;4.58;83.48;101169.13;103699;1297;22544;-76
2022/10/10 00:45:31;;;;;;;19.10;3.40;;;;;;;4.59;83.57;101164.05;103553;1289;22459;-75
2022/10/10 00:48:06;;;;;;;15.80;3.20;;;;;;;4.60;83.59;101155.35;103670;1305;26595;-75
2022/10/10 00:50:42;;;;;;;16.90;4.10;;;;;;;4.61;83.80;101150.92;103634;1306;22594;-75
2022/10/10 00:53:15;;;;;;;15.70;3.20;;;;;;;4.61;83.91;101144.90;103629;1294;22596;-75
2022/10/10 00:55:48;;;;;;;11.50;3.40;;;;;;;4.62;84.03;101140.71;103795;1298;23101;-76
2022/10/10 00:58:20;;;;;;;16.30;3.50;;;;;;;4.63;84.12;101136.44;103774;1282;25672;-75
2022/10/10 01:00:52;;;;;;;16.50;3.70;;;;;;;4.63;84.19;101139.52;103702;1304;22911;-76
2022/10/10 01:03:25;;;;;;;15.40;3.70;;;;;;;4.63;84.14;101135.02;103634;1305;22603;-75
2022/10/10 01:05:56;;;;;;;15.00;4.20;;;;;;;4.64;84.23;101138.70;103704;1282;22575;-75
2022/10/10 01:08:27;;;;;;;16.30;3.50;;;;;;;4.64;84.20;101139.02;103606;1295;22539;-76
2022/10/10 01:11:10;;;;;;;13.50;3.60;;;;;;;4.64;84.33;101137.59;103627;1300;22597;-75
2022/10/10 01:13:52;;;;;;;19.10;6.10;;;;;;;4.64;84.28;101128.36;103784;1292;22493;-75
2022/10/10 01:16:28;;;;;;;15.30;4.30;;;;;;;4.63;84.27;101118.50;103639;1305;23112;-76
2022/10/10 01:19:10;;;;;;;17.80;5.20;;;;;;;4.62;84.32;101117.48;103769;1289;26229;-76
2022/10/10 01:21:51;;;;;;;18.70;4.70;;;;;;;4.62;84.40;101121.52;103656;1287;22530;-76
2022/10/10 01:24:41;;;;;;;17.50;4.70;;;;;;;4.62;84.42;101112.51;103610;1281;22482;-76
2022/10/10 01:27:29;;;;;;;15.00;4.00;;;;;;;4.61;84.60;101112.91;103645;1297;22516;-76
2022/10/10 01:30:06;;;;;;;21.60;4.90;;;;;;;4.60;84.55;101109.29;103657;1306;22617;-76
2022/10/10 01:32:43;;;;;;;17.90;4.90;;;;;;;4.60;84.67;101108.27;103618;1306;25424;-76
2022/10/10 01:35:28;;;;;;;20.60;5.30;;;;;;;4.59;84.67;101103.27;103634;1282;24077;-75
2022/10/10 01:38:19;;;;;;;18.70;5.40;;;;;;;4.59;84.70;101101.15;103452;1277;24345;-76
2022/10/10 01:40:56;;;;;;;18.80;5.40;;;;;;;4.59;84.70;101095.55;103496;1307;22496;-76
2022/10/10 01:43:27;;;;;;;24.50;6.60;;;;;;;4.59;84.83;101101.32;103458;1307;22461;-76
2022/10/10 01:45:58;;;;;;;17.20;5.30;;;;;;;4.59;85.09;101095.56;103558;1289;24381;-76
2022/10/10 01:48:32;;;;;;;18.50;6.80;;;;;;;4.60;84.94;101089.06;103520;1285;22603;-76
2022/10/10 01:51:22;;;;;;;19.00;6.30;;;;;;;4.60;85.01;101082.73;103411;1307;22732;-76
2022/10/10 01:54:05;;;;;;;17.40;5.50;;;;;;;4.61;85.23;101072.30;103447;1308;24359;-76
2022/10/10 01:56:42;;;;;;;21.20;6.60;;;;;;;4.63;85.54;101064.29;103546;1295;24246;-76
2022/10/10 01:59:27;;;;;;;19.80;5.70;;;;;;;4.66;85.70;101060.83;103537;1301;24429;-76
2022/10/10 02:02:09;;;;;;;19.70;6.20;;;;;;;4.70;85.94;101063.63;103560;1295;22475;-76
2022/10/10 02:04:48;;;;;;;18.40;5.60;;;;;;;4.73;86.02;101072.58;103599;1306;25348;-76
2022/10/10 02:07:27;;;;;;;17.90;6.00;;;;;;;4.74;85.96;101072.80;103784;1307;24369;-76
2022/10/10 02:10:02;;;;;;;16.70;5.80;;;;;;;4.73;85.86;101067.04;103804;1277;22500;-75
2022/10/10 02:12:35;;;;;;;23.00;6.70;;;;;;;4.74;85.86;101068.45;103617;1291;25343;-76
2022/10/10 02:15:12;;;;;;;24.80;7.20;;;;;;;4.75;85.80;101065.91;103458;1308;24018;-76
2022/10/10 02:17:46;;;;;;;21.50;6.60;;;;;;;4.73;85.79;101065.71;103773;1308;22553;-76
2022/10/10 02:20:24;;;;;;;20.20;5.80;;;;;;;4.72;85.66;101062.87;103482;1281;22591;-76
2022/10/10 02:22:56;;;;;;;17.00;5.90;;;;;;;4.70;85.43;101059.77;103473;1294;26627;-75
2022/10/10 02:25:31;;;;;;;22.80;5.90;;;;;;;4.66;85.58;101055.63;103746;1301;25264;-76
2022/10/10 02:28:11;;;;;;;18.70;6.10;;;;;;;4.64;85.54;101050.75;103566;1301;22495;-76
2022/10/10 02:30:45;;;;;;;20.70;6.40;;;;;;;4.61;85.23;101042.75;103735;1293;22552;-76
2022/10/10 02:33:21;;;;;;;19.10;5.80;;;;;;;4.55;85.14;101048.98;103497;1291;25367;-76
2022/10/10 02:35:53;;;;;;;17.70;5.90;;;;;;;4.50;84.93;101051.44;103536;1280;25278;-76
2022/10/10 02:38:25;;;;;;;19.90;6.10;;;;;;;4.47;84.94;101044.08;103632;1282;22493;-76
2022/10/10 02:41:02;;;;;;;16.80;4.80;;;;;;;4.44;84.90;101035.98;103718;1305;22466;-76
2022/10/10 02:43:35;;;;;;;17.00;4.60;;;;;;;4.41;84.88;101030.89;103636;1292;22533;-76
2022/10/10 02:46:11;;;;;;;24.70;6.40;;;;;;;4.39;84.85;101028.30;103632;1298;22535;-76
2022/10/10 02:48:42;;;;;;;21.40;6.10;;;;;;;4.37;84.98;101022.81;103572;1304;22631;-76
2022/10/10 02:51:15;;;;;;;17.20;5.70;;;;;;;4.37;85.19;101018.62;103604;1306;26432;-76
2022/10/10 02:53:47;;;;;;;17.00;5.70;;;;;;;4.38;85.35;101022.08;103640;1305;25828;-76
2022/10/10 02:56:19;;;;;;;18.10;5.50;;;;;;;4.37;85.42;101012.86;103621;1303;22737;-75
2022/10/10 02:58:50;;;;;;;21.40;8.30;;;;;;;4.37;85.65;101012.45;103728;1299;22499;-75
2022/10/10 03:01:20;;;;;;;22.40;7.10;;;;;;;4.38;85.70;101008.66;103648;1291;22462;-75
2022/10/10 03:03:52;;;;;;;24.20;7.10;;;;;;;4.38;85.91;101006.91;103743;1297;24264;-75
2022/10/10 03:06:23;;;;;;;23.50;7.70;;;;;;;4.39;86.08;101006.50;103709;1305;24312;-75
2022/10/10 03:08:54;;;;;;;24.10;6.40;;;;;;;4.40;86.16;101006.02;103663;1305;23306;-75
2022/10/10 03:11:25;;;;;;;22.90;7.30;;;;;;;4.42;86.14;101000.77;103661;1298;22533;-76
2022/10/10 03:13:56;;;;;;;25.00;8.30;;;;;;;4.42;86.08;100998.80;103684;1298;25329;-76
2022/10/10 03:16:27;;;;;;;19.00;6.70;;;;;;;4.42;86.14;100993.67;103668;1287;22529;-75
2022/10/10 03:18:59;;;;;;;27.80;8.00;;;;;;;4.43;86.21;100996.11;103681;1298;24233;-76
2022/10/10 03:21:30;;;;;;;22.50;8.80;;;;;;;4.44;86.31;100991.43;103635;1288;24809;-76
2022/10/10 03:24:01;;;;;;;23.30;7.60;;;;;;;4.46;86.43;100991.71;103645;1304;22660;-75
2022/10/10 03:26:32;;;;;;;23.70;7.50;;;;;;;4.48;86.76;100985.82;103604;1304;23886;-76
2022/10/10 03:29:05;;;;;;;25.30;7.40;;;;;;;4.52;86.84;100981.98;103627;1282;22950;-75
2022/10/10 03:31:36;;;;;;;23.80;7.70;;;;;;;4.55;86.94;100981.14;103821;1298;22494;-75
2022/10/10 03:34:07;;;;;;;24.40;6.50;;;;;;;4.57;87.04;100978.09;103652;1278;25303;-75
2022/10/10 03:36:38;;;;;;;22.40;7.10;;;;;;;4.60;87.12;100980.51;103698;1305;22614;-76
2022/10/10 03:39:09;;;;;;;25.20;8.90;;;;;;;4.61;87.00;100973.38;103702;1298;22469;-76
2022/10/10 03:41:40;;;;;;;23.60;7.50;;;;;;;4.61;86.91;100967.68;103650;1290;22543;-76
2022/10/10 03:44:11;;;;;;;25.30;8.80;;;;;;;4.61;86.98;100967.36;103743;1303;25325;-77
2022/10/10 03:46:43;;;;;;;23.50;8.70;;;;;;;4.62;86.85;100970.20;103712;1295;22702;-75
2022/10/10 03:49:14;;;;;;;19.30;6.50;;;;;;;4.61;86.82;100970.77;103646;1298;25239;-76
2022/10/10 03:51:45;;;;;;;21.20;7.20;;;;;;;4.60;86.75;100972.35;103564;1290;26669;-75
2022/10/10 03:54:17;;;;;;;23.00;7.70;;;;;;;4.59;86.73;100967.39;103601;1306;22474;-75
2022/10/10 03:56:48;;;;;;;21.80;7.50;;;;;;;4.56;86.61;100967.05;103665;1291;25324;-76
2022/10/10 03:59:20;;;;;;;21.20;7.50;;;;;;;4.53;86.54;100967.89;103679;1306;22535;-76
2022/10/10 04:01:52;;;;;;;26.10;8.00;;;;;;;4.49;86.37;100967.89;103710;1305;22495;-76
2022/10/10 04:04:24;;;;;;;20.40;7.40;;;;;;;4.44;86.20;100968.54;103649;1288;22459;-76
2022/10/10 04:06:55;;;;;;;19.50;7.80;;;;;;;4.41;86.10;100965.02;103707;1306;24290;-76
2022/10/10 04:09:26;;;;;;;21.10;7.30;;;;;;;4.38;86.02;100957.01;103743;1290;22665;-77
2022/10/10 04:11:58;;;;;;;30.00;7.80;;;;;;;4.36;86.02;100955.53;103728;1280;22483;-76
2022/10/10 04:14:31;;;;;;;21.40;6.40;;;;;;;4.34;85.92;100954.14;103600;1289;25188;-76
2022/10/10 04:17:03;;;;;;;28.00;7.60;;;;;;;4.32;86.11;100946.52;103761;1281;25756;-75
2022/10/10 04:19:35;;;;;;;22.70;8.20;;;;;;;4.31;86.12;100939.20;103615;1298;22481;-75
2022/10/10 04:22:06;;;;;;;20.80;7.10;;;;;;;4.29;86.29;100930.30;103661;1281;23053;-75
2022/10/10 04:24:38;;;;;;;22.00;8.40;;;;;;;4.28;86.48;100923.13;103594;1292;24318;-74
2022/10/10 04:27:08;;;;;;;25.00;8.00;;;;;;;4.29;86.58;100925.09;103578;1281;22475;-74
2022/10/10 04:29:40;;;;;;;26.00;8.50;;;;;;;4.31;86.81;100923.55;103694;1281;24391;-74
2022/10/10 04:32:12;;;;;;;28.40;9.40;;;;;;;4.33;86.87;100918.86;103815;1299;22479;-74
2022/10/10 04:34:43;;;;;;;23.50;6.90;;;;;;;4.35;86.99;100922.39;103683;1289;22477;-73
2022/10/10 04:37:14;;;;;;;24.30;8.40;;;;;;;4.36;86.90;100919.52;103664;1292;22493;-74
2022/10/10 04:39:46;;;;;;;22.20;8.00;;;;;;;4.37;86.99;100919.33;103508;1291;22484;-74
2022/10/10 04:42:17;;;;;;;23.70;8.70;;;;;;;4.38;87.05;100918.86;103649;1282;22475;-74
2022/10/10 04:44:48;;;;;;;22.40;7.30;;;;;;;4.37;86.96;100919.10;103592;1289;25321;-74
2022/10/10 04:47:19;;;;;;;21.30;7.10;;;;;;;4.37;87.01;100920.45;103684;1279;22726;-74
2022/10/10 04:49:51;;;;;;;21.30;7.10;;;;;;;4.36;86.79;100918.11;103720;1282;22479;-75
2022/10/10 04:52:22;;;;;;;21.70;7.40;;;;;;;4.34;86.79;100914.02;103676;1284;22504;-74
2022/10/10 04:54:53;;;;;;;24.60;7.40;;;;;;;4.33;86.86;100918.55;103806;1288;25349;-74
2022/10/10 04:57:25;;;;;;;22.10;7.60;;;;;;;4.30;86.84;100917.33;104002;1298;26649;-74
2022/10/10 04:59:56;;;;;;;20.30;7.30;;;;;;;4.27;86.70;100914.70;103807;1290;22478;-74
2022/10/10 05:02:27;;;;;;;21.20;7.90;;;;;;;4.25;86.63;100915.13;103715;1303;22532;-74
2022/10/10 05:04:58;;;;;;;23.90;8.00;;;;;;;4.22;86.69;100915.73;103683;1292;22585;-74
2022/10/10 05:07:29;;;;;;;29.30;8.10;;;;;;;4.20;86.73;100912.27;103649;1284;25187;-74
2022/10/10 05:10:01;;;;;;;30.00;8.30;;;;;;;4.17;86.70;100912.72;103645;1304;22609;-74
2022/10/10 05:12:34;;;;;;;22.70;8.10;;;;;;;4.14;86.63;100910.09;103688;1304;25316;-74
2022/10/10 05:15:05;;;;;;;21.10;8.50;;;;;;;4.11;86.55;100913.53;103628;1289;22547;-74
2022/10/10 05:17:36;;;;;;;25.10;7.10;;;;;;;4.08;86.46;100909.31;103624;1285;22523;-74
2022/10/10 05:20:09;;;;;;;20.30;7.90;;;;;;;4.05;86.34;100912.13;103702;1301;22579;-74
2022/10/10 05:22:40;;;;;;;24.90;9.00;;;;;;;4.02;86.36;100913.67;103684;1296;22519;-74
2022/10/10 05:25:12;;;;;;;25.40;6.90;;;;;;;4.00;86.48;100908.34;103595;1275;25437;-74
2022/10/10 05:27:43;;;;;;;35.30;8.50;;;;;;;3.99;86.40;100905.57;103633;1291;22480;-73
2022/10/10 05:30:15;;;;;;;23.10;7.60;;;;;;;4.01;86.50;100899.88;103618;1290;22516;-73
2022/10/10 05:32:46;;;;;;;25.90;8.40;;;;;;;4.00;86.68;100901.71;104108;1302;24229;-74
2022/10/10 05:35:17;;;;;;;25.50;8.80;;;;;;;3.99;86.69;100903.63;103670;1287;24536;-74
2022/10/10 05:37:48;;;;;;;27.60;7.60;;;;;;;3.98;86.80;100904.89;103651;1284;25261;-74
2022/10/10 05:40:19;;;;;;;28.80;9.00;;;;;;;3.99;86.82;100900.38;103678;1288;26781;-74
2022/10/10 05:42:51;;;;;;;22.60;8.50;;;;;;;4.00;86.89;100907.31;103744;1282;22476;-74
2022/10/10 05:45:22;;;;;;;32.60;8.60;;;;;;;4.01;86.95;100909.66;103694;1288;26483;-74
2022/10/10 05:47:53;;;;;;;25.40;9.50;;;;;;;4.02;87.26;100912.71;103688;1281;25405;-75
2022/10/10 05:50:31;;;;;;;31.80;8.30;;;;;;;4.04;87.30;100912.00;103591;1291;24322;-74
2022/10/10 05:53:02;;;;;;;29.00;8.90;;;;;;;4.06;87.32;100913.85;103856;1284;22502;-75
2022/10/10 05:55:34;;;;;;;23.80;10.20;;;;;;;4.08;87.43;100906.00;103696;1288;23498;-74
2022/10/10 05:58:05;;;;;;;31.10;12.20;;;;;;;4.10;87.57;100904.79;103719;1284;24279;-75
2022/10/10 06:00:36;;;;;;;37.00;12.40;;;;;;;4.13;87.75;100902.45;103678;1281;25322;-74
2022/10/10 06:03:11;;;;;;;35.20;12.90;;;;;;;4.15;87.79;100901.08;103666;1283;22487;-75
2022/10/10 06:05:43;;;;;;;38.10;14.00;;;;;;;4.18;88.08;100902.52;103664;1281;25427;-75
2022/10/10 06:08:14;;;;;;;33.80;12.30;;;;;;;4.22;88.26;100898.21;103709;1288;25509;-75
2022/10/10 06:10:46;;;;;;;34.10;11.60;;;;;;;4.25;88.39;100899.80;103662;1281;25737;-76
2022/10/10 06:13:19;;;;;;;37.30;13.30;;;;;;;4.29;88.54;100896.42;103637;1305;22467;-77
2022/10/10 06:15:53;;;;;;;37.60;15.40;;;;;;;4.34;88.69;100893.57;103721;1298;24411;-76
2022/10/10 06:18:26;;;;;;;37.20;13.80;;;;;;;4.39;88.96;100892.77;103733;1306;25394;-76
2022/10/10 06:21:01;;;;;;;32.20;11.10;;;;;;;4.45;89.20;100893.23;103606;1281;25024;-76
2022/10/10 06:23:32;;;;;;;30.50;10.30;;;;;;;4.51;89.30;100891.77;103767;1306;22471;-76
2022/10/10 06:26:04;;;;;;;31.90;10.70;;;;;;;4.56;89.57;100893.35;103578;1304;22612;-76
2022/10/10 06:28:36;;;;;;;29.40;13.40;;;;;;;4.61;89.61;100891.90;103601;1291;22465;-76
2022/10/10 06:31:09;;;;;;;35.20;12.60;;;;;;;4.68;89.76;100892.02;103553;1289;22585;-76
2022/10/10 06:33:42;;;;;;;25.80;10.90;;;;;;;4.74;89.89;100891.67;103550;1282;26579;-77
2022/10/10 06:36:15;;;;;;;32.40;12.90;;;;;;;4.80;90.01;100890.28;103784;1305;23404;-76
2022/10/10 06:38:48;;;;;;;39.40;13.00;;;;;;;4.86;90.17;100891.84;103668;1298;22487;-76
2022/10/10 06:41:19;;;;;;;29.30;12.00;;;;;;;4.91;90.42;100891.33;103694;1275;22775;-76
2022/10/10 06:43:50;;;;;;;28.60;11.20;;;;;;;4.99;90.67;100888.59;103589;1304;25274;-76
2022/10/10 06:46:21;;;;;;;25.40;11.40;;;;;;;5.06;90.62;100891.30;103626;1298;22753;-77
2022/10/10 06:48:55;;;;;;;26.70;12.10;;;;;;;5.12;90.72;100892.83;103574;1306;22479;-76
2022/10/10 06:51:26;;;;;;;31.10;13.40;;;;;;;5.19;90.93;100892.69;103412;1305;220304;-77
2022/10/10 06:53:58;;;;;;;33.90;12.90;;;;;;;5.27;91.24;100895.44;103569;1306;24297;-76
2022/10/10 06:56:30;;;;;;;35.60;14.30;;;;;;;5.35;91.46;100893.45;103586;1291;22914;-76
2022/10/10 06:59:01;;;;;;;32.30;13.70;;;;;;;5.43;91.60;100888.12;103696;1297;25319;-76
2022/10/10 07:01:32;;;;;;;33.30;12.80;;;;;;;5.53;91.92;100885.48;103529;1281;22545;-75
2022/10/10 07:04:04;;;;;;;35.20;13.60;;;;;;;5.62;91.70;100886.83;103564;1285;24243;-75
2022/10/10 07:06:36;;;;;;;31.70;11.70;;;;;;;5.71;91.87;100889.17;103583;1300;24330;-75
2022/10/10 07:09:08;;;;;;;30.60;12.80;;;;;;;5.83;92.34;100890.35;103616;1279;22490;-75
2022/10/10 07:11:44;;;;;;;28.80;11.90;;;;;;;5.93;92.12;100889.96;103577;1306;25216;-75
2022/10/10 07:14:15;;;;;;;30.40;11.70;;;;;;;6.01;91.82;100888.58;103584;1282;23481;-74
2022/10/10 07:16:46;;;;;;;26.70;13.00;;;;;;;6.09;91.79;100886.42;103594;1304;24244;-75
2022/10/10 07:19:17;;;;;;;30.70;11.60;;;;;;;6.16;91.79;100885.05;103502;1305;22751;-75
2022/10/10 07:21:49;;;;;;;27.70;11.90;;;;;;;6.24;92.02;100878.38;103603;1288;22480;-75
2022/10/10 07:24:20;;;;;;;32.60;12.80;;;;;;;6.33;92.02;100883.77;103577;1291;22461;-75
2022/10/10 07:26:54;;;;;;;30.90;12.50;;;;;;;6.40;92.03;100881.59;103562;1305;23905;-75
2022/10/10 07:29:27;;;;;;;32.70;11.30;;;;;;;6.48;91.97;100879.95;103653;1304;22539;-75
2022/10/10 07:31:58;;;;;;;28.50;11.00;;;;;;;6.56;92.02;100882.13;103571;1289;26802;-75
2022/10/10 07:34:29;;;;;;;27.20;10.40;;;;;;;6.63;91.64;100885.04;103481;1286;26501;-75
2022/10/10 07:37:00;;;;;;;26.20;10.80;;;;;;;6.70;92.04;100881.77;103613;1291;22530;-75
2022/10/10 07:39:31;;;;;;;27.00;10.90;;;;;;;6.79;92.05;100877.33;103574;1298;22538;-75
2022/10/10 07:42:02;;;;;;;30.90;11.00;;;;;;;6.88;92.26;100873.73;103630;1306;22477;-75
2022/10/10 07:44:33;;;;;;;26.40;11.20;;;;;;;6.98;91.99;100876.55;103589;1305;22598;-75
2022/10/10 07:47:04;;;;;;;25.70;11.70;;;;;;;7.06;92.07;100877.42;103624;1301;22521;-75
2022/10/10 07:49:37;;;;;;;24.40;11.00;;;;;;;7.14;91.94;100879.27;103583;1304;24422;-75
2022/10/10 07:52:08;;;;;;;26.20;10.50;;;;;;;7.20;91.85;100877.33;103629;1304;25449;-75
2022/10/10 07:54:40;;;;;;;27.40;10.40;;;;;;;7.29;91.99;100876.98;103648;1298;22672;-76
2022/10/10 07:57:11;;;;;;;24.80;9.90;;;;;;;7.38;91.89;100874.52;103587;1305;24262;-76
2022/10/10 07:59:44;;;;;;;27.10;10.40;;;;;;;7.46;91.83;100871.17;103509;1298;22473;-75
2022/10/10 08:02:16;;;;;;;25.40;9.70;;;;;;;7.54;91.68;100861.56;103552;1297;25861;-75
2022/10/10 08:04:47;;;;;;;25.50;10.10;;;;;;;7.66;91.92;100856.73;103594;1291;25196;-75
2022/10/10 08:07:18;;;;;;;23.10;8.80;;;;;;;7.76;92.01;100856.42;103621;1298;24381;-75
2022/10/10 08:09:49;;;;;;;28.60;10.60;;;;;;;7.86;91.95;100855.06;103600;1282;24234;-75
2022/10/10 08:12:20;;;;;;;26.50;9.70;;;;;;;7.96;91.71;100850.71;103658;1305;22612;-76
2022/10/10 08:14:52;;;;;;;25.70;9.60;;;;;;;8.03;91.76;100848.71;103587;1305;22650;-76
2022/10/10 08:17:23;;;;;;;23.00;9.30;;;;;;;8.14;91.74;100849.23;103600;1305;23289;-76
2022/10/10 08:19:55;;;;;;;26.70;8.40;;;;;;;8.26;91.78;100847.98;103585;1279;24619;-76
2022/10/10 08:22:26;;;;;;;22.60;8.80;;;;;;;8.36;91.55;100843.14;103622;1304;22594;-76
2022/10/10 08:24:57;;;;;;;22.30;8.20;;;;;;;8.45;91.53;100847.83;103686;1284;25330;-74
2022/10/10 08:27:28;;;;;;;21.20;8.20;;;;;;;8.53;91.35;100845.72;103594;1282;24817;-74
2022/10/10 08:30:00;;;;;;;24.20;9.00;;;;;;;8.62;91.18;100840.78;103605;1278;22475;-74
2022/10/10 08:32:30;;;;;;;22.50;8.80;;;;;;;8.70;91.11;100835.07;103638;1290;23107;-74
2022/10/10 08:35:02;;;;;;;24.50;9.30;;;;;;;8.80;91.37;100833.22;103641;1303;22862;-74
2022/10/10 08:37:33;;;;;;;21.40;8.30;;;;;;;8.91;91.40;100829.69;103652;1282;24176;-74
2022/10/10 08:40:05;;;;;;;19.90;7.50;;;;;;;9.04;91.04;100830.43;103598;1305;22487;-74
2022/10/10 08:42:40;;;;;;;24.60;9.30;;;;;;;9.16;91.27;100829.98;103828;1303;22564;-74
2022/10/10 08:45:16;;;;;;;21.30;8.50;;;;;;;9.28;91.04;100828.38;103642;1304;22684;-74
2022/10/10 08:47:54;;;;;;;18.60;6.60;;;;;;;9.36;90.75;100827.11;103707;1304;22602;-74
2022/10/10 08:50:31;;;;;;;19.00;7.30;;;;;;;9.51;90.74;100826.70;103692;1284;22488;-74
2022/10/10 08:53:07;;;;;;;16.50;6.20;;;;;;;9.65;90.54;100818.89;103630;1289;22559;-74
2022/10/10 08:55:42;;;;;;;23.30;8.00;;;;;;;9.74;90.38;100818.67;103719;1297;22590;-74
2022/10/10 08:58:24;;;;;;;19.00;6.30;;;;;;;9.87;90.20;100818.80;103723;1281;22462;-74
2022/10/10 09:01:02;;;;;;;18.10;6.10;;;;;;;9.97;89.89;100814.75;103580;1304;22487;-74
2022/10/10 09:03:39;;;;;;;14.20;6.40;;;;;;;10.06;89.91;100811.98;103597;1305;24238;-74
2022/10/10 09:06:28;;;;;;;18.60;7.40;;;;;;;10.17;89.91;100808.59;103618;1288;22544;-75
2022/10/10 09:09:09;;;;;;;20.50;6.30;;;;;;;10.25;89.57;100803.67;103598;1282;25289;-75
2022/10/10 09:11:57;;;;;;;18.00;6.40;;;;;;;10.33;89.45;100799.58;103584;1288;23730;-75
2022/10/10 09:14:37;;;;;;;17.20;6.20;;;;;;;10.45;89.47;100790.60;103717;1305;24272;-75
2022/10/10 09:17:19;;;;;;;20.30;6.10;;;;;;;10.52;89.23;100785.83;103641;1278;22464;-74
2022/10/10 09:19:59;;;;;;;16.60;6.10;;;;;;;10.60;89.16;100790.84;103585;1298;22628;-75
2022/10/10 09:22:36;;;;;;;17.90;5.70;;;;;;;10.71;89.15;100788.39;103537;1278;22528;-75
2022/10/10 09:25:16;;;;;;;15.30;5.60;;;;;;;10.81;88.98;100788.40;103614;1297;22881;-74
2022/10/10 09:28:01;;;;;;;15.70;4.90;;;;;;;10.95;88.89;100788.95;103611;1287;22957;-74
2022/10/10 09:30:37;;;;;;;17.40;5.70;;;;;;;11.07;88.43;100784.95;103675;1304;25474;-75
2022/10/10 09:33:20;;;;;;;20.50;6.20;;;;;;;11.16;88.21;100787.21;103647;1283;22483;-75
2022/10/10 09:35:56;;;;;;;20.20;5.60;;;;;;;11.26;88.15;100781.60;103635;1288;22500;-75
2022/10/10 09:38:35;;;;;;;16.10;5.90;;;;;;;11.34;87.81;100780.89;103630;1304;22971;-75
2022/10/10 09:41:14;;;;;;;17.90;5.40;;;;;;;11.40;87.80;100775.23;103739;1291;23853;-75
2022/10/10 09:43:45;;;;;;;17.00;5.40;;;;;;;11.47;87.81;100772.30;103600;1304;22484;-75
2022/10/10 09:46:16;;;;;;;20.90;5.70;;;;;;;11.57;87.86;100761.34;103604;1304;22467;-75
2022/10/10 09:48:47;;;;;;;20.60;5.50;;;;;;;11.67;87.83;100764.27;103617;1298;23793;-75
2022/10/10 09:51:20;;;;;;;16.90;5.60;;;;;;;11.79;87.86;100763.38;103657;1300;25202;-75
2022/10/10 09:53:52;;;;;;;12.80;4.80;;;;;;;11.93;87.29;100758.84;103684;1300;22483;-75
2022/10/10 09:56:25;;;;;;;14.50;5.00;;;;;;;12.08;87.05;100754.73;103556;1274;26499;-75
2022/10/10 09:58:58;;;;;;;14.40;4.60;;;;;;;12.23;86.81;100754.73;103727;1289;22489;-75
2022/10/10 10:01:31;;;;;;;15.50;4.30;;;;;;;12.37;86.66;100751.48;103594;1306;25304;-75
2022/10/10 10:04:16;;;;;;;16.50;5.70;;;;;;;12.46;86.05;100750.83;103600;1297;22456;-75
2022/10/10 10:06:50;;;;;;;17.30;5.00;;;;;;;12.62;85.86;100746.65;103830;1303;22542;-75
2022/10/10 10:09:23;;;;;;;14.20;5.00;;;;;;;12.77;85.72;100752.78;103640;1304;22602;-75
2022/10/10 10:11:59;;;;;;;15.60;4.90;;;;;;;12.88;85.32;100751.05;103614;1304;22481;-75
2022/10/10 10:14:36;;;;;;;17.80;5.00;;;;;;;13.03;85.05;100748.81;103579;1287;24020;-75
2022/10/10 10:17:11;;;;;;;12.90;4.40;;;;;;;13.14;84.70;100743.61;103575;1303;22641;-75
2022/10/10 10:19:44;;;;;;;15.60;4.80;;;;;;;13.22;84.50;100741.46;103547;1304;22558;-75
2022/10/10 10:22:30;;;;;;;13.80;3.40;;;;;;;13.32;84.47;100738.40;103632;1283;24234;-75
2022/10/10 10:25:22;;;;;;;11.20;3.80;;;;;;;13.43;84.15;100737.30;103651;1274;24233;-75
2022/10/10 10:28:05;;;;;;;16.40;5.20;;;;;;;13.51;83.92;100736.16;103612;1304;22951;-75
2022/10/10 10:30:38;;;;;;;13.20;4.70;;;;;;;13.56;83.67;100734.90;103575;1304;22717;-75
2022/10/10 10:33:14;;;;;;;15.20;3.90;;;;;;;13.61;83.70;100728.80;103602;1282;25517;-75
2022/10/10 10:35:56;;;;;;;14.70;4.00;;;;;;;13.65;83.21;100723.45;103645;1306;23317;-75
2022/10/10 10:38:42;;;;;;;14.80;4.20;;;;;;;13.75;83.04;100723.64;103568;1274;26012;-75
2022/10/10 10:41:24;;;;;;;15.30;4.10;;;;;;;13.85;82.73;100715.71;103568;1289;22470;-75
2022/10/10 10:44:19;;;;;;;15.10;4.00;;;;;;;13.93;82.63;100717.77;103615;1275;22558;-75
2022/10/10 10:47:00;;;;;;;10.10;3.10;;;;;;;14.05;82.11;100710.67;103653;1299;22475;-76
2022/10/10 10:49:43;;;;;;;17.70;3.90;;;;;;;14.15;82.19;100705.33;103735;1284;22505;-75
2022/10/10 10:52:34;;;;;;;12.50;3.40;;;;;;;14.24;82.06;100698.23;103570;1282;25195;-75
2022/10/10 10:55:22;;;;;;;14.10;4.50;;;;;;;14.33;81.71;100690.90;103638;1304;22606;-75
2022/10/10 10:58:25;;;;;;;11.80;3.80;;;;;;;14.41;81.05;100686.05;103628;1297;23078;-75
2022/10/10 11:01:00;;;;;;;13.00;3.80;;;;;;;14.54;80.91;100681.83;103573;1298;22607;-75
2022/10/10 11:03:46;;;;;;;10.30;3.00;;;;;;;14.64;80.07;100674.16;103440;1297;23883;-75
2022/10/10 11:06:30;;;;;;;10.70;2.70;;;;;;;14.74;80.07;100669.81;103657;1282;22483;-75
2022/10/10 11:09:13;;;;;;;11.20;3.10;;;;;;;14.87;80.03;100670.60;103621;1301;24191;-75
2022/10/10 11:12:05;;;;;;;15.90;2.70;;;;;;;15.00;79.68;100670.15;103666;1299;22474;-75
2022/10/10 11:14:47;;;;;;;10.80;2.80;;;;;;;15.14;79.24;100660.33;103541;1306;25382;-75
2022/10/10 11:17:23;;;;;;;14.00;2.90;;;;;;;15.22;78.58;100658.84;103594;1305;22515;-75
2022/10/10 11:20:00;;;;;;;11.80;3.20;;;;;;;15.28;77.58;100661.20;103600;1304;25671;-75
2022/10/10 11:22:36;;;;;;;12.20;3.20;;;;;;;15.36;77.45;100657.20;103545;1306;22885;-75
2022/10/10 11:25:19;;;;;;;8.90;2.30;;;;;;;15.43;77.42;100648.05;103649;1282;22956;-75
2022/10/10 11:27:57;;;;;;;8.40;2.60;;;;;;;15.48;76.83;100648.29;103842;1297;22484;-75
2022/10/10 11:30:33;;;;;;;11.80;2.70;;;;;;;15.56;76.90;100644.19;103584;1294;27393;-75
2022/10/10 11:33:12;;;;;;;9.30;3.00;;;;;;;15.64;76.98;100643.36;103605;1281;24291;-75
2022/10/10 11:35:50;;;;;;;8.80;2.60;;;;;;;15.72;76.43;100637.87;103581;1306;22480;-75
2022/10/10 11:38:28;;;;;;;11.60;3.00;;;;;;;15.80;76.23;100635.65;103635;1305;24237;-76
2022/10/10 11:41:03;;;;;;;12.70;3.90;;;;;;;15.87;75.89;100625.70;103821;1306;22498;-75
2022/10/10 11:43:43;;;;;;;10.60;2.50;;;;;;;15.94;75.48;100623.46;103580;1304;24274;-75
2022/10/10 11:46:21;;;;;;;9.90;3.00;;;;;;;16.03;74.98;100613.11;103599;1298;25426;-76
2022/10/10 11:49:01;;;;;;;10.60;2.70;;;;;;;16.14;74.96;100606.78;103603;1298;22487;-75